Time;durP1;ratioP1;P1;durP2;ratioP2;P2;SDS_P1;SDS_P2;PMS_P1;PMS_P2;Temp;Humidity;BMP_temperature;BMP_pressure;BME280_temperature;BME280_humidity;BME280_pressure;Samples;Min_cycle;Max_cycle;Signal;HPM_P1;HPM_P2
2023/11/07 00:01:49;;;;;;;2.95;2.20;;;;;;;8.60;86.96;97796.44;5113193;28;20023;-73
2023/11/07 00:04:15;;;;;;;2.13;1.95;;;;;;;8.55;87.46;97799.03;5095032;28;20039;-72
2023/11/07 00:06:40;;;;;;;3.22;1.80;;;;;;;8.52;87.30;97788.81;5094649;28;20030;-72
2023/11/07 00:09:07;;;;;;;3.70;1.80;;;;;;;8.57;87.46;97802.28;5113048;28;20031;-72
2023/11/07 00:11:33;;;;;;;2.08;1.90;;;;;;;8.57;87.42;97802.28;5094730;28;20038;-72
2023/11/07 00:13:58;;;;;;;2.70;1.85;;;;;;;8.58;87.53;97794.00;5112907;28;20036;-72
2023/11/07 00:16:25;;;;;;;2.35;2.08;;;;;;;8.65;87.06;97804.59;5094130;28;20320;-72
2023/11/07 00:18:51;;;;;;;3.38;1.70;;;;;;;8.64;87.66;97805.63;5113010;28;20387;-72
2023/11/07 00:21:16;;;;;;;2.33;1.60;;;;;;;8.66;87.24;97807.03;5094581;28;20031;-71
2023/11/07 00:23:42;;;;;;;2.28;1.50;;;;;;;8.73;87.28;97806.88;5112706;28;20134;-72
2023/11/07 00:26:07;;;;;;;2.10;1.90;;;;;;;8.66;87.16;97798.19;5112488;28;20024;-72
2023/11/07 00:28:32;;;;;;;2.05;1.85;;;;;;;8.72;86.83;97807.94;5108936;28;20114;-72
2023/11/07 00:30:58;;;;;;;2.17;1.55;;;;;;;8.75;87.17;97820.88;5112644;28;20024;-72
2023/11/07 00:33:23;;;;;;;2.45;1.60;;;;;;;8.77;87.20;97813.41;5112559;28;20584;-72
2023/11/07 00:35:48;;;;;;;2.78;1.77;;;;;;;8.76;86.89;97817.94;5093904;28;20027;-70
2023/11/07 00:38:14;;;;;;;2.45;1.50;;;;;;;8.64;86.88;97784.97;5093709;28;20043;-70
2023/11/07 00:40:39;;;;;;;3.25;1.75;;;;;;;8.83;86.79;97823.16;5085638;28;20030;-71
2023/11/07 00:43:04;;;;;;;3.85;1.80;;;;;;;8.82;86.83;97813.50;5075567;28;20040;-71
2023/11/07 00:45:30;;;;;;;1.90;1.70;;;;;;;8.79;87.21;97811.28;5073843;28;20032;-70
2023/11/07 00:47:56;;;;;;;2.20;1.80;;;;;;;8.80;86.94;97819.09;5110263;28;20114;-69
2023/11/07 00:50:22;;;;;;;2.65;2.10;;;;;;;8.83;86.50;97823.97;5094088;28;20039;-70
2023/11/07 00:52:48;;;;;;;3.40;1.80;;;;;;;8.82;86.86;97818.88;5076215;28;20059;-70
2023/11/07 00:55:14;;;;;;;2.17;1.88;;;;;;;8.82;86.57;97821.56;5103107;28;20023;-71
2023/11/07 00:57:39;;;;;;;4.75;1.90;;;;;;;8.80;86.50;97823.63;5076061;28;20032;-70
2023/11/07 01:00:05;;;;;;;2.85;2.10;;;;;;;8.79;86.91;97827.41;5091967;28;20020;-70
2023/11/07 01:02:30;;;;;;;4.45;1.90;;;;;;;8.81;86.65;97825.28;5091868;28;20089;-70
2023/11/07 01:04:56;;;;;;;3.75;1.83;;;;;;;8.75;86.62;97832.41;5056716;28;20034;-70
2023/11/07 01:07:21;;;;;;;3.15;1.90;;;;;;;8.77;86.50;97835.69;5073540;28;20044;-71
2023/11/07 01:09:47;;;;;;;2.85;1.80;;;;;;;8.86;86.40;97846.84;5091760;28;20028;-70
2023/11/07 01:12:13;;;;;;;1.80;1.70;;;;;;;8.85;86.25;97847.91;5073378;28;20036;-71
2023/11/07 01:14:39;;;;;;;3.40;1.80;;;;;;;8.79;86.46;97832.75;5091250;28;20530;-70
2023/11/07 01:17:04;;;;;;;2.00;1.63;;;;;;;8.81;86.26;97838.69;5073588;28;20059;-70
2023/11/07 01:19:30;;;;;;;1.98;1.88;;;;;;;8.86;86.44;97844.16;5084292;28;20047;-69
2023/11/07 01:21:55;;;;;;;2.95;1.77;;;;;;;8.83;86.25;97839.28;5059294;28;20479;-70
2023/11/07 01:24:21;;;;;;;2.17;1.73;;;;;;;8.84;85.99;97847.09;5073418;28;20059;-71
2023/11/07 01:26:46;;;;;;;4.05;1.70;;;;;;;8.87;86.03;97856.53;5069875;28;20510;-69
2023/11/07 01:29:12;;;;;;;3.15;1.65;;;;;;;8.86;86.12;97850.34;5071605;28;20543;-69
2023/11/07 01:31:38;;;;;;;2.88;1.83;;;;;;;8.82;85.76;97845.72;5097611;28;20039;-69
2023/11/07 01:34:04;;;;;;;1.80;1.70;;;;;;;8.84;85.89;97848.97;5097768;28;20015;-70
2023/11/07 01:36:29;;;;;;;2.25;1.90;;;;;;;8.83;85.75;97850.00;5097351;28;20467;-70
2023/11/07 01:38:55;;;;;;;2.33;2.10;;;;;;;8.83;85.69;97847.31;5097673;28;20031;-71
2023/11/07 01:41:20;;;;;;;3.30;1.70;;;;;;;8.84;85.50;97860.53;5097415;28;20482;-69
2023/11/07 01:43:46;;;;;;;1.70;1.60;;;;;;;8.71;85.39;97842.00;5115807;28;20112;-69
2023/11/07 01:46:11;;;;;;;4.05;2.03;;;;;;;8.82;85.53;97851.09;5097116;28;20406;-70
2023/11/07 01:48:37;;;;;;;2.60;1.75;;;;;;;8.69;85.87;97837.94;5080692;28;20506;-69
2023/11/07 01:51:03;;;;;;;3.42;2.00;;;;;;;8.78;85.86;97844.53;5097371;28;20031;-70
2023/11/07 01:53:29;;;;;;;2.67;1.85;;;;;;;8.81;85.69;97849.44;5080611;28;20422;-71
2023/11/07 01:55:56;;;;;;;2.97;1.60;;;;;;;8.83;85.13;97850.00;5096985;28;20036;-69
2023/11/07 01:58:22;;;;;;;2.75;1.90;;;;;;;8.79;85.34;97832.75;5080394;28;20024;-69
2023/11/07 02:00:49;;;;;;;3.92;2.08;;;;;;;8.82;85.10;97840.34;5097099;28;20031;-69
2023/11/07 02:03:14;;;;;;;3.90;1.70;;;;;;;8.77;85.13;97837.56;5080222;28;20042;-70
2023/11/07 02:05:43;;;;;;;3.88;1.80;;;;;;;8.82;85.40;97843.03;5114804;28;20483;-70
2023/11/07 02:08:09;;;;;;;5.22;1.90;;;;;;;8.83;84.90;97845.47;5080320;28;20107;-70
2023/11/07 02:10:35;;;;;;;4.90;1.60;;;;;;;8.86;84.74;97854.91;5066589;28;20157;-70
2023/11/07 02:13:01;;;;;;;2.45;1.70;;;;;;;8.88;84.86;97847.41;5069214;28;20031;-70
2023/11/07 02:15:27;;;;;;;1.95;1.83;;;;;;;8.86;84.75;97850.34;5080542;28;20036;-71
2023/11/07 02:17:52;;;;;;;2.08;1.70;;;;;;;8.86;85.16;97849.53;5096978;28;20023;-71
2023/11/07 02:20:18;;;;;;;3.25;2.10;;;;;;;8.77;85.46;97837.56;5079237;28;20032;-71
2023/11/07 02:22:46;;;;;;;2.08;1.65;;;;;;;8.80;85.19;97853.16;5067093;28;20162;-72
2023/11/07 02:25:13;;;;;;;1.95;1.60;;;;;;;8.81;85.08;97857.50;5060364;28;20034;-71
2023/11/07 02:27:38;;;;;;;2.90;1.90;;;;;;;8.81;85.08;97863.69;5096746;28;20020;-71
2023/11/07 02:30:04;;;;;;;4.22;1.67;;;;;;;8.65;85.39;97848.38;5114191;28;20486;-71
2023/11/07 02:32:30;;;;;;;2.00;1.58;;;;;;;8.81;85.07;97852.94;5096620;28;20031;-71
2023/11/07 02:34:55;;;;;;;2.45;1.90;;;;;;;8.80;85.01;97850.47;5100883;28;20042;-72
2023/11/07 02:37:21;;;;;;;2.95;1.98;;;;;;;8.80;84.81;97856.69;5096488;28;20440;-71
2023/11/07 02:39:47;;;;;;;2.80;1.67;;;;;;;8.83;85.04;97852.69;5096001;28;20028;-71
2023/11/07 02:42:13;;;;;;;3.30;1.80;;;;;;;8.79;85.26;97849.69;5085270;28;20511;-71
2023/11/07 02:44:38;;;;;;;2.35;1.83;;;;;;;8.77;85.43;97848.31;5095154;28;20023;-72
2023/11/07 02:47:04;;;;;;;2.65;1.70;;;;;;;8.61;84.84;97824.94;5098749;28;20035;-71
2023/11/07 02:49:30;;;;;;;3.45;1.80;;;;;;;8.75;85.21;97847.75;5102797;28;20398;-72
2023/11/07 02:51:56;;;;;;;4.07;2.38;;;;;;;8.70;84.97;97845.78;5086365;28;20031;-71
2023/11/07 02:54:22;;;;;;;3.05;1.73;;;;;;;8.67;85.25;97842.75;5096241;28;20080;-71
2023/11/07 02:56:48;;;;;;;2.28;1.60;;;;;;;8.66;85.21;97836.56;5079153;28;20032;-72
2023/11/07 02:59:14;;;;;;;5.13;1.80;;;;;;;8.65;85.54;97842.16;5096405;28;20031;-72
2023/11/07 03:01:39;;;;;;;2.75;1.88;;;;;;;8.64;85.48;97845.91;5079414;28;20032;-71
2023/11/07 03:04:05;;;;;;;3.13;2.08;;;;;;;8.62;85.15;97845.31;5095124;28;20032;-71
2023/11/07 03:06:30;;;;;;;3.40;2.33;;;;;;;8.58;85.22;97854.91;5080097;28;20067;-71
2023/11/07 03:08:56;;;;;;;5.53;2.10;;;;;;;8.58;85.23;97849.56;5110532;28;20054;-71
2023/11/07 03:11:22;;;;;;;2.00;1.80;;;;;;;8.58;85.65;97863.78;5068898;28;20024;-70
2023/11/07 03:13:48;;;;;;;4.82;1.95;;;;;;;8.56;85.48;97843.63;5078471;28;20055;-71
2023/11/07 03:16:14;;;;;;;2.47;2.05;;;;;;;8.58;84.96;97855.75;5075195;28;20082;-71
2023/11/07 03:18:39;;;;;;;3.17;2.10;;;;;;;8.58;85.59;97854.91;5075276;28;20028;-68
2023/11/07 03:21:08;;;;;;;2.00;1.80;;;;;;;8.55;85.60;97858.06;5093337;28;20434;-72
2023/11/07 03:23:35;;;;;;;2.30;1.90;;;;;;;8.57;85.86;97861.34;5058778;28;20525;-71
2023/11/07 03:26:00;;;;;;;3.28;2.00;;;;;;;8.54;85.43;97856.47;5104289;28;20065;-70
2023/11/07 03:28:26;;;;;;;3.13;2.08;;;;;;;8.53;85.87;97861.00;5095188;28;20478;-71
2023/11/07 03:30:51;;;;;;;2.65;1.85;;;;;;;8.55;85.62;97850.84;5087809;28;20077;-69
2023/11/07 03:33:17;;;;;;;3.90;1.90;;;;;;;8.55;85.26;97853.53;5095675;28;20106;-70
2023/11/07 03:35:46;;;;;;;3.40;2.22;;;;;;;8.55;85.35;97853.53;5078386;28;20386;-71
2023/11/07 03:38:11;;;;;;;2.67;2.10;;;;;;;8.53;85.79;97862.88;5095930;28;20386;-70
2023/11/07 03:40:37;;;;;;;4.07;2.13;;;;;;;8.47;85.46;97861.16;5095026;28;20020;-70
2023/11/07 03:43:02;;;;;;;2.92;1.80;;;;;;;8.42;85.54;97847.63;5090581;28;20044;-70
2023/11/07 03:45:28;;;;;;;2.13;1.92;;;;;;;8.49;85.76;97853.69;5066934;28;20415;-70
2023/11/07 03:47:53;;;;;;;3.97;2.28;;;;;;;8.48;85.86;97857.41;5079089;28;20028;-69
2023/11/07 03:50:19;;;;;;;4.22;2.20;;;;;;;8.44;86.05;97856.25;5067154;28;20491;-69
2023/11/07 03:52:45;;;;;;;2.92;2.10;;;;;;;8.44;86.03;97856.25;5091956;28;20035;-69
2023/11/07 03:55:10;;;;;;;3.28;2.30;;;;;;;8.41;85.81;97856.72;5092567;28;20028;-70
2023/11/07 03:57:35;;;;;;;5.32;2.20;;;;;;;8.44;86.07;97851.72;5074522;28;20044;-70
2023/11/07 04:00:01;;;;;;;3.03;2.40;;;;;;;8.41;86.30;97870.16;5057955;28;20027;-69
2023/11/07 04:02:26;;;;;;;2.50;2.20;;;;;;;8.41;86.04;97872.81;5074587;28;20031;-69
2023/11/07 04:04:53;;;;;;;2.83;2.10;;;;;;;8.44;85.80;97861.63;5074167;28;20387;-69
2023/11/07 04:07:18;;;;;;;2.80;2.47;;;;;;;8.43;85.66;97865.34;5092499;28;20032;-69
2023/11/07 04:09:43;;;;;;;3.25;2.20;;;;;;;8.42;86.20;97871.78;5092533;28;20024;-70
2023/11/07 04:12:09;;;;;;;4.60;2.40;;;;;;;8.46;86.06;97870.25;5074056;28;20384;-70
2023/11/07 04:14:34;;;;;;;3.03;1.98;;;;;;;8.45;85.89;97874.78;5092504;28;20027;-71
2023/11/07 04:16:59;;;;;;;2.38;2.15;;;;;;;8.42;85.88;97874.47;5092283;28;20101;-71
2023/11/07 04:19:25;;;;;;;2.88;2.40;;;;;;;8.42;85.84;97871.78;5092408;28;20028;-70
2023/11/07 04:21:50;;;;;;;3.83;2.50;;;;;;;8.42;85.76;97871.78;5092178;28;20043;-71
2023/11/07 04:24:16;;;;;;;3.60;2.75;;;;;;;8.45;85.77;97874.78;5084702;28;20092;-71
2023/11/07 04:26:41;;;;;;;2.92;2.08;;;;;;;8.49;85.32;97880.50;5098460;28;20675;-70
2023/11/07 04:29:06;;;;;;;2.33;1.95;;;;;;;8.48;85.92;97868.97;5112686;28;20035;-70
2023/11/07 04:31:33;;;;;;;3.85;2.00;;;;;;;8.37;85.47;97847.53;5090928;28;20036;-71
2023/11/07 04:33:58;;;;;;;2.45;1.98;;;;;;;8.49;85.59;97859.88;5080907;28;20506;-70
2023/11/07 04:36:24;;;;;;;2.45;1.95;;;;;;;8.47;85.45;97869.22;5093473;28;20067;-69
2023/11/07 04:38:50;;;;;;;3.10;2.00;;;;;;;8.46;85.44;97870.25;5084589;28;20030;-69
2023/11/07 04:41:15;;;;;;;2.47;2.22;;;;;;;8.33;85.26;97850.69;5105686;28;20381;-70
2023/11/07 04:43:43;;;;;;;2.55;2.17;;;;;;;8.26;85.94;97833.91;5083397;28;20035;-70
2023/11/07 04:46:08;;;;;;;2.17;1.80;;;;;;;8.44;85.35;97865.13;5094357;28;20027;-70
2023/11/07 04:48:34;;;;;;;5.10;2.30;;;;;;;8.46;85.33;97875.63;5094085;28;20101;-70
2023/11/07 04:50:59;;;;;;;4.57;2.50;;;;;;;8.43;85.54;97859.97;5093864;28;20027;-69
2023/11/07 04:53:26;;;;;;;3.03;2.67;;;;;;;8.42;84.98;97853.00;5084268;28;20057;-70
2023/11/07 04:55:52;;;;;;;3.40;2.35;;;;;;;8.46;85.12;97860.34;5087055;28;20047;-70
2023/11/07 04:58:17;;;;;;;4.63;3.00;;;;;;;8.49;85.83;97870.59;5073725;28;20471;-71
2023/11/07 05:00:42;;;;;;;3.17;2.40;;;;;;;8.49;85.61;97864.41;5091572;28;20044;-71
2023/11/07 05:03:09;;;;;;;2.97;2.65;;;;;;;8.54;85.53;97861.84;5091496;28;20031;-71
2023/11/07 05:05:34;;;;;;;4.10;2.80;;;;;;;8.42;85.38;97850.31;5086526;28;20032;-71
2023/11/07 05:07:59;;;;;;;4.47;2.88;;;;;;;8.48;85.09;97860.09;5091648;28;20035;-70
2023/11/07 05:10:25;;;;;;;4.13;2.90;;;;;;;8.47;85.60;97853.91;5076142;28;20043;-70
2023/11/07 05:12:50;;;;;;;3.55;2.60;;;;;;;8.47;85.36;97847.75;5102120;28;20028;-70
2023/11/07 05:15:16;;;;;;;5.47;3.95;;;;;;;8.46;85.57;97857.66;5105123;28;20044;-71
2023/11/07 05:17:42;;;;;;;5.43;3.40;;;;;;;8.50;85.74;97857.97;5066396;28;20020;-70
2023/11/07 05:20:10;;;;;;;5.15;2.97;;;;;;;8.49;85.67;97859.88;5095332;28;20407;-70
2023/11/07 05:22:36;;;;;;;5.50;3.35;;;;;;;8.36;85.44;97844.03;5073819;28;20153;-70
2023/11/07 05:25:05;;;;;;;3.08;2.70;;;;;;;8.47;85.45;97867.31;5073054;28;20028;-71
2023/11/07 05:27:31;;;;;;;3.20;2.90;;;;;;;8.46;85.42;97859.50;5090484;28;20020;-70
2023/11/07 05:29:56;;;;;;;4.57;2.92;;;;;;;8.41;85.90;97872.81;5073444;28;20035;-70
2023/11/07 05:32:22;;;;;;;5.35;3.33;;;;;;;8.46;85.47;97875.63;5091357;28;20028;-70
2023/11/07 05:34:47;;;;;;;4.47;3.25;;;;;;;8.42;85.46;97869.94;5090034;28;20024;-70
2023/11/07 05:37:14;;;;;;;5.00;3.50;;;;;;;8.42;85.51;97863.75;5101535;28;20486;-70
2023/11/07 05:39:39;;;;;;;3.88;3.15;;;;;;;8.46;85.11;97864.88;5087282;28;20093;-71
2023/11/07 05:42:06;;;;;;;5.35;3.97;;;;;;;8.35;85.76;97870.03;5103596;28;20028;-69
2023/11/07 05:44:33;;;;;;;6.43;3.65;;;;;;;8.33;85.67;97871.34;5079668;28;20031;-70
2023/11/07 05:46:58;;;;;;;3.35;2.85;;;;;;;8.27;85.81;97872.28;5080906;28;20020;-69
2023/11/07 05:49:24;;;;;;;4.20;2.90;;;;;;;8.33;85.04;97885.56;5105075;28;20399;-69
2023/11/07 05:51:49;;;;;;;4.05;2.80;;;;;;;8.31;85.39;97879.63;5062309;28;20027;-70
2023/11/07 05:54:16;;;;;;;3.70;3.35;;;;;;;8.28;84.86;97880.09;5106236;28;20044;-70
2023/11/07 05:56:41;;;;;;;4.35;2.80;;;;;;;8.31;84.94;97882.31;5093176;28;20440;-69
2023/11/07 05:59:07;;;;;;;6.97;4.72;;;;;;;8.34;85.18;97884.53;5061041;28;20062;-70
2023/11/07 06:01:33;;;;;;;4.93;3.22;;;;;;;8.34;85.14;97884.53;5101313;28;20024;-69
2023/11/07 06:03:58;;;;;;;4.18;2.90;;;;;;;8.26;85.14;97874.16;5076579;28;20035;-70
2023/11/07 06:06:24;;;;;;;4.78;4.32;;;;;;;8.33;84.96;97888.25;5111892;28;20039;-69
2023/11/07 06:08:51;;;;;;;8.98;7.93;;;;;;;8.32;85.25;97881.25;5063105;28;20039;-69
2023/11/07 06:11:17;;;;;;;9.38;8.48;;;;;;;8.17;85.30;97846.03;5083149;28;20063;-69
2023/11/07 06:13:42;;;;;;;11.15;10.05;;;;;;;8.34;85.49;97889.88;5092664;28;20032;-72
2023/11/07 06:16:08;;;;;;;8.15;7.35;;;;;;;8.28;85.91;97890.03;5068300;28;20031;-71
2023/11/07 06:18:34;;;;;;;7.45;5.40;;;;;;;8.16;86.10;97871.25;5112231;28;20104;-71
2023/11/07 06:20:59;;;;;;;5.50;4.50;;;;;;;8.25;85.69;97890.47;5096807;28;20019;-71
2023/11/07 06:23:25;;;;;;;16.48;13.95;;;;;;;8.06;86.27;97881.75;5114861;28;20039;-70
2023/11/07 06:25:50;;;;;;;6.43;5.45;;;;;;;8.13;85.92;97903.91;5114586;28;20125;-71
2023/11/07 06:28:16;;;;;;;5.00;4.50;;;;;;;8.08;85.91;97894.91;5114991;28;20575;-71
2023/11/07 06:30:42;;;;;;;5.60;4.95;;;;;;;8.17;86.23;97910.41;5079520;28;20043;-71
2023/11/07 06:33:07;;;;;;;8.90;5.47;;;;;;;8.18;86.06;97912.06;5079887;28;20484;-70
2023/11/07 06:35:33;;;;;;;7.05;4.53;;;;;;;8.16;86.52;97914.16;5076305;28;20046;-70
2023/11/07 06:37:58;;;;;;;4.55;4.00;;;;;;;8.14;86.05;97910.91;5077357;28;20499;-69
2023/11/07 06:40:23;;;;;;;5.05;4.40;;;;;;;8.11;86.12;97906.00;5104036;28;20074;-69
2023/11/07 06:42:50;;;;;;;5.22;4.00;;;;;;;8.13;86.79;97909.25;5111494;28;20484;-69
2023/11/07 06:45:15;;;;;;;5.55;4.20;;;;;;;8.21;86.18;97916.94;5104647;28;20024;-69
2023/11/07 06:47:42;;;;;;;7.80;4.68;;;;;;;8.21;86.63;97911.56;5078120;28;20043;-69
2023/11/07 06:50:12;;;;;;;5.80;4.30;;;;;;;8.27;86.52;97915.22;5076080;28;20126;-69
2023/11/07 06:52:39;;;;;;;5.22;4.72;;;;;;;8.17;86.36;97905.03;5107737;28;20043;-70
2023/11/07 06:55:05;;;;;;;4.25;3.85;;;;;;;8.20;86.41;97909.13;5076175;28;20028;-70
2023/11/07 06:57:32;;;;;;;5.35;4.15;;;;;;;8.23;86.24;97914.03;5093871;28;20040;-70
2023/11/07 06:59:57;;;;;;;6.95;4.90;;;;;;;8.25;85.81;97907.38;5075928;28;20051;-69
2023/11/07 07:02:23;;;;;;;6.60;5.03;;;;;;;8.28;86.12;97912.28;5063882;27;20055;-70
2023/11/07 07:04:49;;;;;;;6.70;4.70;;;;;;;8.16;85.71;97914.16;5119697;27;20031;-70
2023/11/07 07:07:15;;;;;;;7.03;4.32;;;;;;;8.30;86.06;97915.56;5092216;28;20169;-70
2023/11/07 07:09:41;;;;;;;5.97;4.07;;;;;;;8.24;85.61;97927.19;5113060;28;20483;-70
2023/11/07 07:12:06;;;;;;;5.88;4.72;;;;;;;8.31;85.93;97927.91;5100903;27;20046;-70
2023/11/07 07:14:31;;;;;;;5.03;4.45;;;;;;;8.29;85.58;97938.06;5087463;28;20372;-70
2023/11/07 07:16:57;;;;;;;7.63;4.63;;;;;;;8.37;85.80;97936.06;5084479;28;20032;-70
2023/11/07 07:19:23;;;;;;;6.38;4.72;;;;;;;8.42;85.64;97938.88;5082733;28;20475;-70
2023/11/07 07:21:52;;;;;;;7.72;5.30;;;;;;;8.44;85.06;97931.41;5093281;28;20036;-70
2023/11/07 07:24:21;;;;;;;5.45;4.15;;;;;;;8.40;84.99;97932.94;5107397;28;20030;-70
2023/11/07 07:26:47;;;;;;;6.43;4.45;;;;;;;8.38;85.01;97943.09;5103657;28;20039;-70
2023/11/07 07:29:13;;;;;;;6.15;4.50;;;;;;;8.44;84.97;97936.75;5111663;28;20102;-70
2023/11/07 07:31:42;;;;;;;5.28;4.07;;;;;;;8.38;84.73;97935.03;5100687;28;20032;-70
2023/11/07 07:34:08;;;;;;;4.65;3.83;;;;;;;8.40;85.09;97938.28;5087610;28;20096;-70
2023/11/07 07:36:43;;;;;;;4.60;4.10;;;;;;;8.43;84.81;97940.47;5103804;28;20046;-70
2023/11/07 07:39:32;;;;;;;6.15;4.72;;;;;;;8.42;84.77;97941.56;5113863;28;20108;-70
2023/11/07 07:42:08;;;;;;;5.25;4.15;;;;;;;8.42;84.44;97931.63;5093131;28;20499;-70
2023/11/07 07:44:44;;;;;;;5.18;4.10;;;;;;;8.48;84.09;97933.38;5072268;28;20039;-69
2023/11/07 07:47:10;;;;;;;5.55;4.50;;;;;;;8.44;84.26;97931.41;5087388;28;20035;-70
2023/11/07 07:49:36;;;;;;;6.93;4.13;;;;;;;8.39;84.29;97923.22;5090736;28;20020;-70
2023/11/07 07:52:08;;;;;;;4.15;3.65;;;;;;;8.48;84.62;97938.72;5093084;28;20032;-70
2023/11/07 07:54:37;;;;;;;5.18;3.90;;;;;;;8.60;84.09;97941.38;5094228;28;20046;-70
2023/11/07 07:57:08;;;;;;;4.70;4.00;;;;;;;8.55;83.89;97941.28;5113121;28;20481;-70
2023/11/07 07:59:34;;;;;;;5.32;4.05;;;;;;;8.56;83.96;97940.22;5081668;28;20046;-70
2023/11/07 08:02:01;;;;;;;5.72;3.83;;;;;;;8.54;84.23;97942.34;5064804;28;20024;-70
2023/11/07 08:04:31;;;;;;;7.63;4.40;;;;;;;8.62;83.98;97944.63;5113187;28;20043;-70
2023/11/07 08:06:57;;;;;;;7.68;4.15;;;;;;;8.67;83.48;97947.44;5081338;28;20562;-70
2023/11/07 08:09:23;;;;;;;4.18;3.58;;;;;;;8.62;83.85;97941.97;5087349;28;20019;-71
2023/11/07 08:11:56;;;;;;;4.50;3.70;;;;;;;8.68;83.40;97947.19;5087878;28;20375;-70
2023/11/07 08:14:22;;;;;;;6.03;4.00;;;;;;;8.71;83.01;97960.13;5074501;28;20039;-70
2023/11/07 08:16:50;;;;;;;5.95;3.53;;;;;;;8.86;82.89;97946.19;5062287;28;20032;-70
2023/11/07 08:19:16;;;;;;;5.25;3.55;;;;;;;8.83;82.50;97938.63;5083366;28;20128;-70
2023/11/07 08:21:41;;;;;;;4.75;3.47;;;;;;;8.98;82.21;97945.09;5079157;28;20491;-70
2023/11/07 08:24:07;;;;;;;4.38;3.47;;;;;;;9.08;81.75;97947.16;5100940;28;20081;-70
2023/11/07 08:26:35;;;;;;;5.38;3.08;;;;;;;9.12;81.81;97945.63;5092309;28;20089;-70
2023/11/07 08:29:06;;;;;;;4.82;2.85;;;;;;;9.22;81.43;97935.03;5101334;28;20039;-70
2023/11/07 08:31:35;;;;;;;6.43;4.45;;;;;;;9.31;81.42;97944.34;5094782;28;20442;-70
2023/11/07 08:34:01;;;;;;;11.00;7.68;;;;;;;9.31;81.22;97930.91;5094532;28;20035;-70
2023/11/07 08:36:27;;;;;;;15.27;9.73;;;;;;;9.43;81.17;97947.78;5093994;28;20042;-70
2023/11/07 08:38:53;;;;;;;48.33;25.88;;;;;;;9.43;81.05;97950.47;5093904;28;20479;-70
2023/11/07 08:41:18;;;;;;;55.42;30.33;;;;;;;9.45;80.83;97940.28;5094215;28;20043;-70
2023/11/07 08:43:44;;;;;;;124.70;63.75;;;;;;;9.41;80.54;97932.94;5111176;28;20470;-70
2023/11/07 08:46:09;;;;;;;94.32;45.97;;;;;;;9.41;80.43;97955.28;5077258;28;20036;-70
2023/11/07 08:48:35;;;;;;;18.48;11.13;;;;;;;9.53;80.40;97955.19;5074050;28;20028;-69
2023/11/07 08:51:01;;;;;;;10.32;7.45;;;;;;;9.43;80.20;97937.03;5090138;28;20502;-70
2023/11/07 08:53:26;;;;;;;10.82;8.40;;;;;;;9.53;80.13;97958.72;5094078;28;20099;-70
2023/11/07 08:55:52;;;;;;;5.18;4.00;;;;;;;9.51;79.95;97960.84;5111945;28;20062;-70
2023/11/07 08:58:18;;;;;;;10.57;5.80;;;;;;;9.48;79.81;97969.38;5112253;28;20498;-70
2023/11/07 09:00:44;;;;;;;9.30;6.50;;;;;;;9.52;79.95;97964.34;5109956;28;20032;-70
2023/11/07 09:03:09;;;;;;;6.07;5.20;;;;;;;9.37;79.87;97954.13;5107735;28;20020;-70
2023/11/07 09:05:35;;;;;;;11.85;6.70;;;;;;;9.51;80.01;97963.50;5089523;28;20035;-69
2023/11/07 09:08:04;;;;;;;5.40;4.32;;;;;;;9.51;79.85;97960.00;5076992;28;20019;-70
2023/11/07 09:10:32;;;;;;;5.32;4.07;;;;;;;9.44;80.05;97962.84;5064354;28;20603;-70
2023/11/07 09:12:58;;;;;;;6.70;4.95;;;;;;;9.50;80.06;97964.56;5097532;28;20059;-71
2023/11/07 09:15:25;;;;;;;5.18;4.35;;;;;;;9.56;80.08;97958.22;5090428;28;20462;-71
2023/11/07 09:17:51;;;;;;;4.35;3.80;;;;;;;9.55;79.88;97959.28;5112035;28;20110;-70
2023/11/07 09:20:16;;;;;;;5.80;4.00;;;;;;;9.55;79.79;97945.84;5093451;28;20196;-70
2023/11/07 09:22:42;;;;;;;5.60;4.15;;;;;;;9.69;79.85;97965.97;5076435;28;20146;-70
2023/11/07 09:25:09;;;;;;;7.47;4.15;;;;;;;9.70;79.63;97959.53;5025692;28;20517;-70
2023/11/07 09:27:34;;;;;;;5.40;3.80;;;;;;;9.78;79.80;97965.56;5073488;28;20115;-71
2023/11/07 09:29:59;;;;;;;4.85;3.80;;;;;;;9.81;79.33;97962.38;5082501;28;20106;-70
2023/11/07 09:32:26;;;;;;;4.72;3.90;;;;;;;9.90;79.68;97968.97;5082621;28;20043;-70
2023/11/07 09:34:52;;;;;;;6.05;4.78;;;;;;;9.87;80.08;97964.09;5095223;28;20085;-70
2023/11/07 09:37:17;;;;;;;8.52;5.68;;;;;;;9.91;79.73;97970.59;5111836;28;20031;-70
2023/11/07 09:39:43;;;;;;;10.95;6.70;;;;;;;9.83;79.83;97957.56;5093611;28;20079;-70
2023/11/07 09:42:09;;;;;;;8.60;6.10;;;;;;;9.86;79.75;97978.59;5056073;28;20025;-71
2023/11/07 09:44:38;;;;;;;5.10;4.03;;;;;;;9.86;79.68;97965.16;5093211;28;20031;-71
2023/11/07 09:47:05;;;;;;;7.05;4.45;;;;;;;9.88;79.75;97965.72;5093811;28;20474;-71
2023/11/07 09:49:32;;;;;;;4.45;3.30;;;;;;;9.87;79.66;97966.78;5093083;28;20411;-71
2023/11/07 09:51:59;;;;;;;4.55;3.65;;;;;;;9.96;79.71;97954.56;5008053;28;20047;-71
2023/11/07 09:54:24;;;;;;;3.58;3.08;;;;;;;10.08;79.36;97960.66;5088595;28;20114;-70
2023/11/07 09:56:52;;;;;;;4.90;2.90;;;;;;;10.19;79.28;97951.69;5079341;28;20098;-70
2023/11/07 09:59:36;;;;;;;3.72;3.10;;;;;;;10.22;78.63;97937.75;5097353;28;20085;-71
2023/11/07 10:02:03;;;;;;;4.80;3.20;;;;;;;10.32;78.62;97954.03;5097409;28;20040;-70
2023/11/07 10:04:30;;;;;;;4.43;2.42;;;;;;;10.25;78.35;97940.75;5097319;28;20026;-71
2023/11/07 10:06:58;;;;;;;3.85;2.38;;;;;;;10.34;78.22;97944.63;5083959;28;20077;-71
2023/11/07 10:09:26;;;;;;;5.20;2.60;;;;;;;10.35;78.23;97945.44;5102998;28;20094;-70
2023/11/07 10:11:53;;;;;;;3.70;2.60;;;;;;;10.27;78.18;97948.56;5065275;28;20041;-71
2023/11/07 10:14:20;;;;;;;5.70;2.90;;;;;;;10.26;78.15;97952.34;5061142;28;20061;-70
2023/11/07 10:16:49;;;;;;;4.32;2.70;;;;;;;10.34;77.85;97951.88;5004807;28;20063;-71
2023/11/07 10:19:19;;;;;;;2.60;2.20;;;;;;;10.42;77.45;97946.09;5059791;28;20125;-70
2023/11/07 10:21:45;;;;;;;3.47;2.28;;;;;;;10.25;77.12;97934.53;4995011;28;20517;-70
2023/11/07 10:24:10;;;;;;;3.35;2.33;;;;;;;10.25;77.35;97935.38;5062500;28;20040;-71
2023/11/07 10:26:50;;;;;;;5.28;2.53;;;;;;;10.34;76.73;97946.50;5065350;28;20246;-71
2023/11/07 10:29:15;;;;;;;3.70;2.33;;;;;;;10.31;77.26;97947.03;5011504;28;20539;-71
2023/11/07 10:31:42;;;;;;;5.25;2.70;;;;;;;10.26;76.73;97942.38;5010776;28;20022;-70
2023/11/07 10:34:17;;;;;;;4.88;3.50;;;;;;;10.40;76.54;97953.59;5000301;28;20042;-70
2023/11/07 10:36:44;;;;;;;5.72;4.07;;;;;;;10.40;76.78;97938.28;5072443;28;20421;-70
2023/11/07 10:39:14;;;;;;;5.07;3.40;;;;;;;10.52;76.39;97940.84;5071554;28;20501;-71
2023/11/07 10:41:40;;;;;;;5.13;3.22;;;;;;;10.52;76.89;97929.25;5065228;28;20034;-67
2023/11/07 10:44:25;;;;;;;3.72;2.28;;;;;;;10.51;76.37;97931.13;4997904;28;20087;-71
2023/11/07 10:46:57;;;;;;;4.93;2.40;;;;;;;10.47;76.38;97921.94;5066695;28;20034;-70
2023/11/07 10:49:24;;;;;;;3.10;2.15;;;;;;;10.57;76.42;97924.72;5076080;28;20038;-70
2023/11/07 10:51:50;;;;;;;5.20;2.47;;;;;;;10.56;75.83;97919.59;5001269;28;20053;-70
2023/11/07 10:54:20;;;;;;;4.40;2.40;;;;;;;10.59;76.19;97914.53;5010792;28;20033;-70
2023/11/07 10:56:46;;;;;;;3.53;2.40;;;;;;;10.70;75.93;97910.91;5058728;28;20129;-70
2023/11/07 10:59:21;;;;;;;3.15;2.30;;;;;;;10.80;75.55;97911.03;5061601;28;20121;-71
2023/11/07 11:01:47;;;;;;;3.93;2.37;;;;;;;10.91;75.71;97907.38;5076513;28;20496;-71
2023/11/07 11:04:16;;;;;;;4.75;2.15;;;;;;;11.02;74.96;97897.50;5079066;28;20025;-70
2023/11/07 11:06:52;;;;;;;5.30;2.42;;;;;;;11.02;74.81;97906.41;5078196;28;20049;-71
2023/11/07 11:09:19;;;;;;;5.85;3.25;;;;;;;11.03;74.77;97905.34;5003701;28;20493;-70
2023/11/07 11:11:48;;;;;;;5.97;2.65;;;;;;;10.99;75.00;97898.81;5072711;28;20500;-71
2023/11/07 11:14:14;;;;;;;6.38;2.60;;;;;;;10.96;74.66;97888.56;5062167;28;20635;-70
2023/11/07 11:16:43;;;;;;;7.70;4.85;;;;;;;11.10;74.88;97900.56;5048245;28;20033;-71
2023/11/07 11:19:24;;;;;;;6.47;3.40;;;;;;;11.06;74.46;97904.03;5077432;28;20077;-71
2023/11/07 11:21:56;;;;;;;2.85;2.10;;;;;;;11.00;74.50;97900.44;5061130;28;20050;-71
2023/11/07 11:24:53;;;;;;;2.92;1.80;;;;;;;10.95;73.95;97902.28;5069214;28;20508;-70
2023/11/07 11:27:20;;;;;;;;;;;;;;;10.75;75.25;97908.25;5048284;28;20045;-71
2023/11/07 11:29:50;;;;;;;3.08;1.70;;;;;;;10.85;74.98;97881.41;4993181;28;20005;-70
2023/11/07 11:32:29;;;;;;;2.45;1.38;;;;;;;10.91;75.05;97893.06;5066634;28;20099;-70
2023/11/07 11:35:16;;;;;;;1.98;1.17;;;;;;;10.99;74.96;97898.81;5008890;28;20041;-71
2023/11/07 11:38:19;;;;;;;3.22;1.63;;;;;;;10.88;76.04;97905.16;5010524;28;20117;-71